Time;durP1;ratioP1;P1;durP2;ratioP2;P2;SDS_P1;SDS_P2;PMS_P1;PMS_P2;Temp;Humidity;BMP_temperature;BMP_pressure;BME280_temperature;BME280_humidity;BME280_pressure;Samples;Min_cycle;Max_cycle;Signal;HPM_P1;HPM_P2
2021/04/08 00:00:26;;;;;;;5.60;2.15;;;;;;;-2.08;78.32;93478.09;2098388;28;20483;-78
2021/04/08 00:01:26;;;;;;;4.28;2.35;;;;;;;-2.12;78.87;93479.84;2090067;28;20095;-79
2021/04/08 00:02:27;;;;;;;4.68;2.30;;;;;;;-2.14;77.85;93479.41;2098000;28;20036;-78
2021/04/08 00:03:27;;;;;;;4.95;2.38;;;;;;;-2.07;76.01;93482.22;2114911;28;20032;-79
2021/04/08 00:04:28;;;;;;;7.03;2.20;;;;;;;-2.05;76.77;93489.78;2106008;28;20048;-80
2021/04/08 00:05:28;;;;;;;4.72;2.30;;;;;;;-2.05;77.61;93485.31;2089631;28;20029;-79
2021/04/08 00:06:28;;;;;;;4.45;2.08;;;;;;;-2.07;78.71;93481.47;2098117;28;20021;-79
2021/04/08 00:07:29;;;;;;;3.28;2.22;;;;;;;-2.07;79.13;93474.38;2104100;28;20056;-79
2021/04/08 00:08:29;;;;;;;5.93;2.20;;;;;;;-2.10;77.55;93472.44;2095596;28;20461;-79
2021/04/08 00:09:30;;;;;;;4.22;2.10;;;;;;;-2.10;78.83;93477.66;2097942;28;20067;-80
2021/04/08 00:10:30;;;;;;;3.95;2.33;;;;;;;-2.00;77.01;93475.72;2097800;28;20127;-80
2021/04/08 00:11:31;;;;;;;3.63;2.20;;;;;;;-2.08;77.52;93485.94;2106392;28;20036;-79
2021/04/08 00:12:31;;;;;;;4.65;2.50;;;;;;;-2.11;77.39;93486.63;2106439;28;20023;-79
2021/04/08 00:13:32;;;;;;;3.17;2.13;;;;;;;-2.03;75.46;93482.34;2086506;28;20070;-80
2021/04/08 00:14:33;;;;;;;5.78;2.20;;;;;;;-2.09;75.78;93487.03;2086843;28;20111;-79
2021/04/08 00:15:33;;;;;;;3.63;2.33;;;;;;;-2.08;76.92;93488.56;2105368;28;20452;-79
2021/04/08 00:16:34;;;;;;;4.53;2.33;;;;;;;-2.08;76.61;93485.94;2106579;28;20051;-79
2021/04/08 00:17:34;;;;;;;5.22;2.50;;;;;;;-2.11;76.45;93485.84;2105531;28;20028;-80
2021/04/08 00:18:35;;;;;;;4.15;2.30;;;;;;;-2.09;77.14;93491.53;2102496;28;20032;-80
2021/04/08 00:19:35;;;;;;;7.13;2.50;;;;;;;-2.12;77.01;93486.94;2104509;28;20059;-79
2021/04/08 00:20:35;;;;;;;3.10;2.40;;;;;;;-2.12;77.43;93492.94;2105825;28;20024;-80
2021/04/08 00:21:36;;;;;;;5.75;2.45;;;;;;;-2.14;77.79;93486.50;2089144;28;20028;-80
2021/04/08 00:22:37;;;;;;;5.05;2.17;;;;;;;-2.07;77.17;93489.31;2088697;28;20119;-79
2021/04/08 00:23:38;;;;;;;9.82;2.45;;;;;;;-2.11;77.50;93488.44;2106420;28;20526;-80
2021/04/08 00:24:39;;;;;;;4.10;2.20;;;;;;;-2.01;77.09;93490.66;2105408;28;20024;-79
2021/04/08 00:25:39;;;;;;;3.75;2.20;;;;;;;-1.91;74.54;93490.22;2097049;28;20070;-79
2021/04/08 00:26:40;;;;;;;4.05;2.47;;;;;;;-1.95;76.19;93489.34;2105357;28;21295;-80
2021/04/08 00:27:42;;;;;;;6.13;2.05;;;;;;;-1.92;76.55;93490.56;2113964;28;20103;-79
2021/04/08 00:28:42;;;;;;;7.07;2.22;;;;;;;-1.89;76.00;93489.88;2122829;27;20031;-80
2021/04/08 00:29:42;;;;;;;5.10;2.50;;;;;;;-1.89;75.33;93508.22;2123381;27;20492;-80
2021/04/08 00:30:43;;;;;;;7.32;2.22;;;;;;;-1.85;75.55;93502.00;2106514;28;20092;-80
2021/04/08 00:31:44;;;;;;;4.78;2.30;;;;;;;-1.91;76.65;93497.31;2089815;28;20493;-79
2021/04/08 00:32:44;;;;;;;6.50;2.30;;;;;;;-1.92;77.93;93496.56;2089996;28;20041;-79
2021/04/08 00:33:44;;;;;;;5.93;2.30;;;;;;;-1.90;77.58;93504.06;2098015;28;20039;-80
2021/04/08 00:34:45;;;;;;;6.30;2.40;;;;;;;-1.96;76.94;93502.78;2114643;28;20030;-79
2021/04/08 00:35:45;;;;;;;4.57;2.40;;;;;;;-1.96;77.50;93500.91;2114708;28;20557;-79
2021/04/08 00:36:46;;;;;;;2.97;2.05;;;;;;;-1.99;77.48;93500.81;2097917;28;20158;-80
2021/04/08 00:37:46;;;;;;;4.97;2.65;;;;;;;-2.01;76.98;93501.13;2081688;28;20034;-80
2021/04/08 00:38:47;;;;;;;4.10;2.28;;;;;;;-2.01;77.82;93495.91;2092063;28;20025;-79
2021/04/08 00:39:48;;;;;;;4.50;2.88;;;;;;;-2.00;78.45;93502.66;2102245;28;20019;-79
2021/04/08 00:40:49;;;;;;;4.93;2.40;;;;;;;-2.00;79.38;93500.03;2098101;28;20028;-79
2021/04/08 00:41:49;;;;;;;8.30;2.50;;;;;;;-2.04;78.78;93499.91;2081656;28;20448;-79
2021/04/08 00:42:49;;;;;;;5.35;2.38;;;;;;;-1.99;77.58;93490.31;2089783;28;20028;-80
2021/04/08 00:43:50;;;;;;;4.70;2.17;;;;;;;-1.98;78.06;93500.47;2098316;28;20489;-80
2021/04/08 00:44:51;;;;;;;5.38;2.33;;;;;;;-1.99;76.75;93495.56;2110573;28;20034;-79
2021/04/08 00:45:51;;;;;;;2.83;2.00;;;;;;;-2.03;77.67;93498.06;2098569;28;20489;-80
2021/04/08 00:46:51;;;;;;;3.65;2.20;;;;;;;-1.99;77.73;93506.78;2097727;28;20062;-80
2021/04/08 00:47:52;;;;;;;5.72;2.33;;;;;;;-2.04;77.58;93504.41;2089708;28;20021;-79
2021/04/08 00:48:52;;;;;;;6.18;2.30;;;;;;;-2.05;78.79;93503.63;2098026;28;20041;-80
2021/04/08 00:49:53;;;;;;;4.50;2.25;;;;;;;-2.00;78.52;93509.75;2114789;28;20028;-79
2021/04/08 00:50:53;;;;;;;3.15;2.20;;;;;;;-2.01;78.64;93510.84;2114775;28;20035;-80
2021/04/08 00:51:53;;;;;;;3.25;2.08;;;;;;;-2.07;78.35;93500.56;2106307;28;20525;-79
2021/04/08 00:52:59;;;;;;;3.83;1.90;;;;;;;-2.03;78.11;93511.91;2090721;28;20021;-80
2021/04/08 00:53:59;;;;;;;3.17;2.45;;;;;;;-2.06;78.15;93506.59;2106405;28;20060;-78
2021/04/08 00:55:00;;;;;;;4.80;2.53;;;;;;;-2.05;78.26;93503.63;2106205;28;20480;-79
2021/04/08 00:56:01;;;;;;;5.70;2.40;;;;;;;-2.08;78.04;93498.28;2102802;28;20020;-79
2021/04/08 00:57:03;;;;;;;6.53;2.25;;;;;;;-2.06;79.43;93506.59;2106211;28;20393;-78
2021/04/08 00:58:04;;;;;;;5.05;2.60;;;;;;;-2.07;78.94;93512.91;2106503;28;20545;-79
2021/04/08 00:59:05;;;;;;;4.22;2.60;;;;;;;-2.09;79.00;93500.13;2097911;28;20435;-79
2021/04/08 01:00:06;;;;;;;6.05;2.60;;;;;;;-2.10;79.74;93513.56;2089649;28;20432;-79
2021/04/08 01:01:07;;;;;;;3.95;2.30;;;;;;;-2.10;79.22;93506.47;2098067;28;20062;-79
2021/04/08 01:02:09;;;;;;;4.00;2.30;;;;;;;-2.12;78.72;93511.25;2089409;28;21054;-79
2021/04/08 01:03:11;;;;;;;3.70;2.13;;;;;;;-2.06;78.98;93511.84;2090028;28;20097;-79
2021/04/08 01:04:11;;;;;;;5.18;2.10;;;;;;;-2.08;78.49;93509.53;2106184;28;20522;-79
2021/04/08 01:05:12;;;;;;;5.03;2.33;;;;;;;-2.05;78.13;93513.34;2109801;28;20458;-79
2021/04/08 01:06:12;;;;;;;4.78;2.70;;;;;;;-2.06;77.74;93509.97;2114660;28;20020;-78
2021/04/08 01:07:13;;;;;;;3.90;2.15;;;;;;;-1.97;77.57;93511.72;2114584;28;20031;-79
2021/04/08 01:08:14;;;;;;;4.70;2.35;;;;;;;-1.99;78.81;93516.50;2109934;28;20024;-79
2021/04/08 01:09:15;;;;;;;4.53;2.13;;;;;;;-2.00;78.68;93515.75;2107992;28;20111;-79
2021/04/08 01:10:18;;;;;;;3.50;2.10;;;;;;;-2.01;79.35;93513.47;2106241;28;20434;-78
2021/04/08 01:11:18;;;;;;;5.05;2.50;;;;;;;-2.00;80.08;93517.63;2098083;28;20028;-79
2021/04/08 01:12:19;;;;;;;4.90;2.40;;;;;;;-1.83;76.14;93509.53;2097741;28;20467;-79
2021/04/08 01:13:21;;;;;;;6.80;2.80;;;;;;;-1.89;78.24;93514.25;2089421;28;20028;-79
2021/04/08 01:14:22;;;;;;;5.82;2.67;;;;;;;-1.93;78.75;93518.59;2090010;28;20028;-79
2021/04/08 01:15:24;;;;;;;2.63;2.20;;;;;;;-1.97;79.38;93512.50;2097797;28;20450;-79
2021/04/08 01:16:35;;;;;;;6.45;2.60;;;;;;;-2.01;79.11;93521.31;2098107;28;21199;-79
2021/04/08 01:17:43;;;;;;;5.47;2.47;;;;;;;-2.01;78.49;93522.09;2099107;28;20463;-79
2021/04/08 01:19:09;;;;;;;3.70;2.70;;;;;;;-2.00;79.15;93513.13;2090236;28;21107;-79
2021/04/08 01:20:31;;;;;;;5.82;2.90;;;;;;;-2.04;80.27;93518.25;2096394;28;20504;-79
2021/04/08 01:21:41;;;;;;;4.90;2.22;;;;;;;-1.94;79.63;93518.91;2103944;28;20449;-80
2021/04/08 01:23:01;;;;;;;;;;;;;;;-1.88;78.40;93522.88;2099523;28;20446;-78
2021/04/08 01:24:38;;;;;;;5.03;2.17;;;;;;;-1.79;78.64;93526.13;2100313;28;19916;-79
2021/04/08 01:25:39;;;;;;;3.65;1.90;;;;;;;-1.84;78.71;93526.34;2104462;28;20097;-79
2021/04/08 01:27:11;;;;;;;5.82;2.67;;;;;;;-1.92;79.42;93524.59;2106204;28;21217;-80
2021/04/08 01:28:30;;;;;;;4.22;2.10;;;;;;;-1.96;80.06;93523.72;2077004;28;20553;-79
2021/04/08 01:29:52;;;;;;;6.10;2.58;;;;;;;-1.93;80.33;93523.06;2105714;28;20442;-78
2021/04/08 01:30:55;;;;;;;3.90;2.05;;;;;;;-1.97;80.75;93527.44;2092243;28;20455;-79
2021/04/08 01:31:59;;;;;;;5.28;2.60;;;;;;;-1.99;79.74;93524.38;2090008;28;20435;-79
2021/04/08 01:33:00;;;;;;;3.25;2.42;;;;;;;-1.95;80.57;93531.25;2089900;28;20438;-79
2021/04/08 01:34:07;;;;;;;4.60;2.70;;;;;;;-1.94;80.19;93529.38;2089547;28;21069;-79
2021/04/08 01:35:10;;;;;;;3.88;2.30;;;;;;;-1.97;80.40;93532.69;2090039;28;20432;-79
2021/04/08 01:36:20;;;;;;;4.50;2.47;;;;;;;-2.05;81.14;93532.44;2090041;28;20502;-79
2021/04/08 01:37:39;;;;;;;4.35;2.53;;;;;;;-2.02;80.79;93536.25;2090602;28;20793;-78
2021/04/08 01:38:43;;;;;;;3.58;2.05;;;;;;;-1.97;81.00;93530.06;2095699;28;20090;-79
2021/04/08 01:39:46;;;;;;;6.03;2.67;;;;;;;-2.05;81.47;93531.69;2098109;28;20542;-80
2021/04/08 01:40:48;;;;;;;4.05;2.38;;;;;;;-1.98;80.80;93534.50;2098038;28;20451;-79
2021/04/08 01:41:50;;;;;;;4.75;2.30;;;;;;;-1.99;81.46;93540.09;2097775;28;20557;-78
2021/04/08 01:42:53;;;;;;;3.90;2.70;;;;;;;-2.01;82.14;93529.94;2105949;28;20410;-79
2021/04/08 01:43:57;;;;;;;6.95;2.70;;;;;;;-2.03;81.79;93537.34;2098392;28;20951;-80
2021/04/08 01:45:00;;;;;;;5.78;2.55;;;;;;;-2.06;82.37;93540.63;2090152;28;20485;-80
2021/04/08 01:46:03;;;;;;;5.45;2.63;;;;;;;-2.06;81.61;93540.63;2104916;28;20442;-79
2021/04/08 01:47:06;;;;;;;10.48;2.88;;;;;;;-2.07;81.65;93542.47;2099146;28;20538;-80
2021/04/08 01:48:07;;;;;;;8.48;2.80;;;;;;;-2.03;81.84;93539.97;2097895;28;20426;-79
2021/04/08 01:49:09;;;;;;;3.35;2.58;;;;;;;-2.04;82.99;93544.44;2097627;28;20442;-80
2021/04/08 01:50:11;;;;;;;4.10;2.28;;;;;;;-1.94;81.55;93540.63;2106083;28;20459;-79
2021/04/08 01:51:14;;;;;;;6.80;3.10;;;;;;;-1.94;80.46;93542.50;2114405;28;20774;-79
2021/04/08 01:52:15;;;;;;;5.80;2.40;;;;;;;-1.94;81.63;93539.88;2106259;28;20515;-79
2021/04/08 01:53:19;;;;;;;3.08;2.50;;;;;;;-1.96;82.66;93534.22;2114404;28;20467;-80
2021/04/08 01:54:23;;;;;;;7.05;2.78;;;;;;;-1.98;81.91;93533.75;2105760;28;21010;-80
2021/04/08 01:55:25;;;;;;;2.83;2.20;;;;;;;-2.01;81.11;93547.53;2098380;28;20435;-80
2021/04/08 01:56:31;;;;;;;4.68;2.20;;;;;;;-2.08;81.56;93537.56;2105998;28;20585;-81
2021/04/08 01:57:34;;;;;;;5.32;2.45;;;;;;;-2.06;82.63;93546.63;2106489;28;20446;-80
2021/04/08 01:58:34;;;;;;;5.38;2.80;;;;;;;-2.04;80.90;93539.22;2106220;28;20493;-80
2021/04/08 01:59:36;;;;;;;5.22;2.63;;;;;;;-1.80;78.66;93528.00;2097126;28;20542;-80
2021/04/08 02:00:38;;;;;;;3.42;2.72;;;;;;;-1.88;80.04;93531.47;2096008;28;20052;-79
2021/04/08 02:01:42;;;;;;;8.95;2.60;;;;;;;-1.90;80.62;93541.50;2105999;28;20857;-80
2021/04/08 02:02:46;;;;;;;4.15;2.58;;;;;;;-1.88;79.81;93531.47;2097707;28;20470;-80
2021/04/08 02:03:50;;;;;;;5.15;2.60;;;;;;;-1.91;79.65;93537.38;2097947;28;20447;-80
2021/04/08 02:04:52;;;;;;;8.98;3.22;;;;;;;-1.92;81.67;93538.47;2089826;28;20475;-80
2021/04/08 02:05:54;;;;;;;4.40;2.47;;;;;;;-1.94;81.26;93535.38;2089266;28;20443;-79
2021/04/08 02:06:57;;;;;;;4.90;2.80;;;;;;;-1.96;81.50;93536.81;2089792;28;20440;-79
2021/04/08 02:07:59;;;;;;;6.18;3.40;;;;;;;-2.01;81.72;93542.28;2097912;28;20815;-80
2021/04/08 02:09:00;;;;;;;6.45;3.00;;;;;;;-2.05;82.06;93542.16;2089127;28;20431;-80
2021/04/08 02:10:01;;;;;;;5.07;2.65;;;;;;;-2.10;81.68;93545.00;2089046;28;20453;-78
2021/04/08 02:11:02;;;;;;;5.80;3.28;;;;;;;-2.11;82.08;93543.44;2080740;28;20037;-79
2021/04/08 02:12:07;;;;;;;4.47;2.95;;;;;;;-2.14;81.94;93544.13;2080873;28;20108;-79
2021/04/08 02:13:11;;;;;;;4.10;2.38;;;;;;;-2.16;81.72;93536.56;2081686;28;20440;-79
2021/04/08 02:14:15;;;;;;;5.78;2.50;;;;;;;-2.13;82.04;93538.53;2081603;28;20452;-79
2021/04/08 02:15:20;;;;;;;4.63;2.58;;;;;;;-2.13;81.60;93543.78;2089464;28;20538;-79
2021/04/08 02:16:21;;;;;;;6.28;2.42;;;;;;;-2.16;82.38;93539.19;2094105;28;20480;-80
2021/04/08 02:17:22;;;;;;;7.03;3.00;;;;;;;-2.10;81.11;93545.75;2102014;28;21401;-80
2021/04/08 02:18:24;;;;;;;5.07;2.67;;;;;;;-2.11;81.94;93546.06;2101024;28;20016;-79
2021/04/08 02:19:25;;;;;;;6.18;3.05;;;;;;;-2.15;82.82;93545.19;2105555;28;20454;-78
2021/04/08 02:20:36;;;;;;;3.35;2.58;;;;;;;-2.14;82.56;93544.13;2088980;28;20533;-79
2021/04/08 02:21:38;;;;;;;3.70;2.53;;;;;;;-2.19;82.90;93546.94;2090378;28;20451;-80
2021/04/08 02:22:42;;;;;;;4.68;2.80;;;;;;;-2.22;83.20;93537.09;2089139;28;20435;-80
2021/04/08 02:23:44;;;;;;;5.00;2.63;;;;;;;-2.22;82.94;93545.72;2105043;28;20854;-79
2021/04/08 02:24:47;;;;;;;4.03;2.67;;;;;;;-2.22;82.68;93532.63;2105579;28;20480;-80
2021/04/08 02:25:50;;;;;;;4.75;2.80;;;;;;;-2.18;83.99;93544.00;2097608;28;20431;-80
2021/04/08 02:26:51;;;;;;;4.53;2.50;;;;;;;-1.94;80.79;93538.00;2089428;28;20448;-78
2021/04/08 02:27:54;;;;;;;3.70;2.50;;;;;;;-1.89;79.66;93539.66;2080772;28;20551;-80
2021/04/08 02:28:58;;;;;;;6.32;3.20;;;;;;;-1.95;81.55;93541.72;2089457;28;20851;-79
2021/04/08 02:29:58;;;;;;;5.38;2.75;;;;;;;-1.98;79.63;93545.00;2105628;28;20484;-80
2021/04/08 02:31:00;;;;;;;4.85;2.58;;;;;;;-1.96;80.58;93534.22;2097477;28;20454;-78
2021/04/08 02:32:02;;;;;;;3.40;2.47;;;;;;;-1.98;81.47;93533.75;2097562;28;20036;-78
2021/04/08 02:33:02;;;;;;;3.35;2.47;;;;;;;-1.87;80.27;93540.09;2099295;28;20509;-79
2021/04/08 02:34:05;;;;;;;7.57;3.10;;;;;;;-1.94;81.52;93542.50;2097281;28;20505;-80
2021/04/08 02:35:11;;;;;;;4.13;2.92;;;;;;;-2.04;81.43;93536.59;2097527;28;20074;-80
2021/04/08 02:36:13;;;;;;;3.95;2.85;;;;;;;-2.07;81.71;93536.47;2098138;28;20505;-79
2021/04/08 02:37:13;;;;;;;6.18;2.90;;;;;;;-2.08;81.54;93540.19;2089249;28;20455;-81
2021/04/08 02:38:15;;;;;;;6.35;3.13;;;;;;;-2.06;81.68;93548.50;2080786;28;20469;-80
2021/04/08 02:39:15;;;;;;;7.00;3.22;;;;;;;-2.05;82.51;93537.69;2089127;28;20036;-80
2021/04/08 02:40:18;;;;;;;4.70;3.08;;;;;;;-1.94;80.56;93543.25;2089019;28;20800;-79
2021/04/08 02:41:19;;;;;;;4.20;3.03;;;;;;;-1.95;81.19;93546.19;2089412;28;20025;-80
2021/04/08 02:42:20;;;;;;;5.43;2.55;;;;;;;-1.96;81.94;93549.91;2080856;28;20502;-80
2021/04/08 02:43:21;;;;;;;6.85;3.00;;;;;;;-2.03;81.10;93545.97;2084748;28;20456;-79
2021/04/08 02:44:21;;;;;;;5.30;3.10;;;;;;;-2.05;80.77;93553.41;2080708;28;20687;-80
2021/04/08 02:45:22;;;;;;;4.30;3.30;;;;;;;-2.11;81.10;93548.69;2097142;28;20028;-80
2021/04/08 02:46:22;;;;;;;6.88;2.65;;;;;;;-2.10;80.09;93548.38;2105587;28;20429;-79
2021/04/08 02:47:22;;;;;;;4.22;3.03;;;;;;;-2.08;80.50;93558.50;2088941;28;20029;-79
2021/04/08 02:48:25;;;;;;;4.95;3.35;;;;;;;-2.04;79.92;93551.53;2097317;28;20385;-79
2021/04/08 02:49:25;;;;;;;3.28;2.90;;;;;;;-2.03;79.53;93553.81;2097333;28;20032;-79
2021/04/08 02:50:26;;;;;;;5.00;2.92;;;;;;;-2.03;81.07;93556.44;2097206;28;20530;-80
2021/04/08 02:51:32;;;;;;;6.93;3.20;;;;;;;-2.04;81.74;93562.78;2089077;28;20025;-79
2021/04/08 02:52:41;;;;;;;5.18;2.67;;;;;;;-2.00;82.34;93556.91;2098263;28;20029;-80
2021/04/08 02:53:52;;;;;;;3.85;2.72;;;;;;;-1.96;80.56;93563.00;2098285;28;20454;-80
2021/04/08 02:55:14;;;;;;;5.45;2.90;;;;;;;-1.92;79.88;93556.03;2090205;28;20443;-80
2021/04/08 02:56:39;;;;;;;4.03;2.67;;;;;;;-1.93;81.20;93555.28;2100217;28;20474;-79
2021/04/08 02:58:01;;;;;;;4.55;2.40;;;;;;;-1.72;80.14;93552.53;2092339;28;20445;-78
2021/04/08 02:59:08;;;;;;;5.05;3.33;;;;;;;-1.84;79.29;93555.94;2095829;28;20442;-80
2021/04/08 03:00:10;;;;;;;4.80;3.03;;;;;;;-1.86;79.07;93547.63;2107076;28;20418;-79
2021/04/08 03:01:13;;;;;;;6.28;2.95;;;;;;;-1.90;80.54;93559.09;2098810;28;21034;-80
2021/04/08 03:02:17;;;;;;;6.03;2.80;;;;;;;-1.91;79.64;93555.69;2082975;28;20452;-79
2021/04/08 03:03:22;;;;;;;3.67;3.00;;;;;;;-1.93;81.92;93555.28;2090873;28;20796;-80
2021/04/08 03:04:23;;;;;;;3.60;3.10;;;;;;;-1.94;82.15;93555.59;2094984;28;20499;-79
2021/04/08 03:05:26;;;;;;;6.18;2.95;;;;;;;-1.91;82.38;93552.31;2090861;28;20447;-80
2021/04/08 03:06:27;;;;;;;3.63;2.92;;;;;;;-1.97;83.96;93548.41;2097229;28;20463;-78
2021/04/08 03:07:30;;;;;;;5.72;3.20;;;;;;;-1.96;83.49;93548.06;2098997;28;20768;-79
2021/04/08 03:08:32;;;;;;;4.32;3.13;;;;;;;-1.96;83.05;93552.53;2107293;28;20111;-80
2021/04/08 03:09:36;;;;;;;4.63;3.42;;;;;;;-1.97;82.11;93569.34;2107227;28;20442;-79
2021/04/08 03:10:38;;;;;;;4.07;3.25;;;;;;;-1.98;81.72;93562.56;2107737;28;20418;-80
2021/04/08 03:11:39;;;;;;;5.57;2.88;;;;;;;-2.01;82.33;93558.00;2115683;27;20469;-78
2021/04/08 03:12:44;;;;;;;6.78;3.53;;;;;;;-2.01;82.93;93556.13;2124156;27;20981;-79
2021/04/08 03:13:47;;;;;;;4.10;3.28;;;;;;;-2.04;83.91;93557.53;2107138;28;20127;-80
2021/04/08 03:14:51;;;;;;;4.13;2.88;;;;;;;-2.06;82.25;93562.34;2090476;28;20972;-80
2021/04/08 03:15:52;;;;;;;6.25;3.08;;;;;;;-2.13;83.50;93551.63;2099906;28;20553;-80
2021/04/08 03:16:55;;;;;;;6.13;3.00;;;;;;;-2.10;84.63;93564.09;2098750;28;20458;-78
2021/04/08 03:17:57;;;;;;;4.82;3.22;;;;;;;-2.12;83.80;93574.09;2099022;28;20052;-79
2021/04/08 03:18:58;;;;;;;6.28;3.22;;;;;;;-2.10;83.50;93560.72;2098767;28;20978;-79
2021/04/08 03:20:01;;;;;;;4.70;3.30;;;;;;;-2.09;83.44;93565.59;2090100;28;20847;-79
2021/04/08 03:21:04;;;;;;;5.22;3.05;;;;;;;-2.14;84.13;93572.91;2099224;28;20915;-79
2021/04/08 03:22:07;;;;;;;4.80;3.30;;;;;;;-2.13;85.08;93563.97;2107247;28;20450;-80
2021/04/08 03:23:10;;;;;;;4.75;3.33;;;;;;;-2.13;84.04;93571.81;2090897;28;21175;-80
2021/04/08 03:24:12;;;;;;;3.80;3.05;;;;;;;-2.14;84.77;93560.59;2082402;28;20462;-80
2021/04/08 03:25:13;;;;;;;4.47;3.33;;;;;;;-2.14;84.65;93570.28;2090454;28;20431;-79
2021/04/08 03:26:16;;;;;;;4.25;2.97;;;;;;;-2.17;84.16;93571.69;2098616;28;20490;-79
2021/04/08 03:27:18;;;;;;;5.05;3.10;;;;;;;-2.20;85.19;93572.34;2099250;28;20799;-80
2021/04/08 03:28:20;;;;;;;3.78;2.92;;;;;;;-2.23;85.73;93574.84;2098553;28;20454;-79
2021/04/08 03:29:21;;;;;;;3.17;2.70;;;;;;;-2.18;86.58;93572.78;2090555;28;21006;-79
2021/04/08 03:30:22;;;;;;;5.22;2.97;;;;;;;-2.14;85.66;93581.53;2098420;28;20959;-78
2021/04/08 03:31:24;;;;;;;7.43;3.42;;;;;;;-2.14;85.53;93578.16;2098621;28;20457;-80
2021/04/08 03:32:25;;;;;;;3.17;2.60;;;;;;;-2.21;85.98;93577.91;2107204;28;20422;-79
2021/04/08 03:33:26;;;;;;;5.55;2.83;;;;;;;-2.21;86.08;93570.81;2106901;28;20471;-79
2021/04/08 03:34:26;;;;;;;4.13;3.30;;;;;;;-2.21;86.33;93570.06;2098512;28;20947;-79
2021/04/08 03:35:28;;;;;;;8.15;2.90;;;;;;;-2.26;86.42;93571.03;2099488;28;20383;-79
2021/04/08 03:36:28;;;;;;;5.47;3.40;;;;;;;-2.23;87.11;93574.84;2098770;28;20027;-80
2021/04/08 03:37:29;;;;;;;4.95;3.10;;;;;;;-2.22;85.49;93577.16;2098542;28;20474;-80
2021/04/08 03:38:30;;;;;;;3.75;3.03;;;;;;;-2.23;85.80;93570.38;2106923;28;20019;-79
2021/04/08 03:39:30;;;;;;;5.90;3.20;;;;;;;-2.21;86.39;93570.81;2123800;27;20027;-79
2021/04/08 03:40:32;;;;;;;5.78;3.60;;;;;;;-2.20;86.92;93568.97;2115396;28;20088;-78
2021/04/08 03:41:37;;;;;;;7.25;3.55;;;;;;;-2.27;87.06;93561.66;2106995;28;20028;-79
2021/04/08 03:42:38;;;;;;;5.95;2.75;;;;;;;-2.28;86.64;93566.13;2107676;28;20987;-79
2021/04/08 03:43:40;;;;;;;7.47;3.05;;;;;;;-2.34;86.12;93570.00;2106750;28;20445;-79
2021/04/08 03:44:41;;;;;;;6.32;2.80;;;;;;;-2.35;86.96;93570.34;2106968;28;20446;-79
2021/04/08 03:45:42;;;;;;;5.15;3.03;;;;;;;-2.26;88.17;93578.88;2098329;28;20459;-79
2021/04/08 03:46:45;;;;;;;5.25;3.17;;;;;;;-2.34;86.95;93577.09;2106821;28;20446;-79
2021/04/08 03:47:46;;;;;;;5.32;3.13;;;;;;;-2.37;86.52;93578.53;2106762;28;20377;-79
2021/04/08 03:48:49;;;;;;;4.50;3.42;;;;;;;-2.34;86.08;93577.09;2098240;28;20453;-79
2021/04/08 03:49:52;;;;;;;5.10;2.72;;;;;;;-2.31;86.65;93576.47;2098771;28;20492;-79
2021/04/08 03:50:54;;;;;;;4.22;2.60;;;;;;;-2.33;86.77;93578.63;2098842;28;20466;-79
2021/04/08 03:51:55;;;;;;;4.28;2.85;;;;;;;-2.29;86.13;93577.66;2097967;28;20559;-79
2021/04/08 03:52:57;;;;;;;5.43;3.30;;;;;;;-2.26;87.79;93573.63;2091131;28;20479;-79
2021/04/08 03:53:58;;;;;;;5.18;3.45;;;;;;;-2.26;87.48;93572.88;2098365;28;20534;-79
2021/04/08 03:54:59;;;;;;;6.47;2.88;;;;;;;-2.25;86.48;93574.41;2098332;28;20447;-80
2021/04/08 03:56:01;;;;;;;3.83;2.72;;;;;;;-2.30;86.16;93581.38;2110096;28;20528;-80
2021/04/08 03:57:05;;;;;;;4.63;2.97;;;;;;;-2.34;87.00;93583.09;2100094;28;20538;-80
2021/04/08 03:58:08;;;;;;;5.35;2.50;;;;;;;-2.39;86.81;93580.69;2090768;28;20443;-80
2021/04/08 03:59:11;;;;;;;5.00;2.80;;;;;;;-2.37;87.19;93581.16;2093294;28;20586;-79
2021/04/08 04:00:13;;;;;;;5.07;3.20;;;;;;;-2.40;86.44;93576.53;2103819;28;20496;-79
2021/04/08 04:01:15;;;;;;;6.88;3.72;;;;;;;-2.34;87.19;93577.09;2106786;28;20454;-79
2021/04/08 04:02:17;;;;;;;5.88;3.70;;;;;;;-2.37;87.91;93577.75;2102110;28;20438;-80
2021/04/08 04:03:18;;;;;;;9.15;3.67;;;;;;;-2.36;88.26;93584.53;2115079;28;20418;-80
2021/04/08 04:04:20;;;;;;;5.43;3.50;;;;;;;-2.40;87.40;93573.94;2114928;28;20457;-80
2021/04/08 04:05:22;;;;;;;5.32;3.25;;;;;;;-2.38;87.01;93579.59;2098407;28;20033;-79
2021/04/08 04:06:22;;;;;;;6.25;2.97;;;;;;;-2.38;87.03;93576.22;2098295;28;20484;-79
2021/04/08 04:07:23;;;;;;;4.63;3.10;;;;;;;-2.30;87.00;93580.59;2098296;28;20451;-79
2021/04/08 04:08:24;;;;;;;3.97;3.10;;;;;;;-2.23;86.99;93574.84;2089957;28;20514;-79
2021/04/08 04:09:25;;;;;;;3.55;2.55;;;;;;;-2.26;87.32;93581.50;2089209;28;20059;-79
2021/04/08 04:10:26;;;;;;;4.15;2.92;;;;;;;-2.26;88.43;93578.88;2102247;28;20529;-79
2021/04/08 04:11:27;;;;;;;4.03;3.10;;;;;;;-2.24;89.10;93581.91;2098340;28;20105;-79
2021/04/08 04:12:28;;;;;;;4.10;3.05;;;;;;;-2.25;88.42;93580.41;2090049;28;20038;-80
2021/04/08 04:13:30;;;;;;;4.40;2.65;;;;;;;-2.33;88.22;93582.03;2090104;28;20549;-80
2021/04/08 04:14:32;;;;;;;5.82;2.92;;;;;;;-2.32;87.80;93580.94;2098266;28;20498;-79
2021/04/08 04:15:34;;;;;;;4.05;2.92;;;;;;;-2.35;88.31;93593.91;2090188;28;20451;-80
2021/04/08 04:16:38;;;;;;;7.22;3.15;;;;;;;-2.35;88.51;93583.44;2090096;28;20513;-79
2021/04/08 04:17:38;;;;;;;3.22;2.40;;;;;;;-2.34;88.65;93587.56;2099007;28;20423;-79
2021/04/08 04:18:39;;;;;;;6.10;2.40;;;;;;;-2.34;87.56;93584.97;2106559;28;20438;-79
2021/04/08 04:19:40;;;;;;;4.05;2.88;;;;;;;-2.35;86.98;93584.19;2104992;28;20031;-79
2021/04/08 04:20:40;;;;;;;5.07;3.00;;;;;;;-2.34;87.68;93587.56;2106359;28;20503;-79
2021/04/08 04:21:41;;;;;;;5.63;3.25;;;;;;;-2.33;88.46;93587.28;2098109;28;20043;-80
2021/04/08 04:22:42;;;;;;;6.63;2.95;;;;;;;-2.31;88.38;93592.19;2098229;28;20115;-79
2021/04/08 04:23:43;;;;;;;4.72;2.70;;;;;;;-2.26;88.10;93593.81;2105379;28;20032;-79
2021/04/08 04:24:43;;;;;;;4.22;2.55;;;;;;;-2.28;88.46;93592.31;2097965;28;20493;-80
2021/04/08 04:25:44;;;;;;;5.90;3.15;;;;;;;-2.30;88.26;93594.47;2102913;28;20499;-78
2021/04/08 04:26:44;;;;;;;5.55;3.30;;;;;;;-2.32;88.64;93593.28;2098186;28;20024;-79
2021/04/08 04:27:45;;;;;;;4.13;3.47;;;;;;;-2.32;89.40;93594.03;2115035;28;20067;-79
2021/04/08 04:28:45;;;;;;;4.40;3.10;;;;;;;-2.33;89.34;93604.81;2123552;27;20369;-79
2021/04/08 04:29:45;;;;;;;4.88;3.05;;;;;;;-2.33;89.13;93596.94;2114777;28;20068;-79
2021/04/08 04:30:46;;;;;;;3.63;2.72;;;;;;;-2.32;89.65;93596.66;2098121;28;20488;-79
2021/04/08 04:31:46;;;;;;;5.32;3.10;;;;;;;-2.30;88.99;93598.94;2098142;28;20028;-80
2021/04/08 04:32:47;;;;;;;6.00;3.05;;;;;;;-2.32;88.76;93598.50;2106862;28;20032;-80
2021/04/08 04:33:47;;;;;;;5.18;3.17;;;;;;;-2.34;89.49;93598.81;2106534;28;20118;-79
2021/04/08 04:34:48;;;;;;;3.55;2.83;;;;;;;-2.33;89.18;93602.97;2097931;28;20035;-79
2021/04/08 04:35:48;;;;;;;4.30;2.80;;;;;;;-2.32;88.45;93611.59;2106514;28;20020;-80
2021/04/08 04:36:49;;;;;;;4.78;2.97;;;;;;;-2.33;88.44;93602.19;2106397;28;20073;-79
2021/04/08 04:37:51;;;;;;;4.45;2.90;;;;;;;-2.34;88.34;93609.28;2089955;28;20462;-80
2021/04/08 04:38:51;;;;;;;4.70;2.83;;;;;;;-2.35;88.80;93610.38;2089831;28;20025;-79
2021/04/08 04:39:51;;;;;;;24.67;11.55;;;;;;;-2.32;89.59;93603.75;2097971;28;20458;-79
2021/04/08 04:40:52;;;;;;;103.68;44.75;;;;;;;-2.29;88.96;93601.22;2097867;28;20036;-81
2021/04/08 04:41:52;;;;;;;77.32;37.30;;;;;;;-2.22;87.34;93605.19;2114893;28;20032;-80
2021/04/08 04:42:53;;;;;;;69.93;34.70;;;;;;;-2.25;88.20;93605.81;2100886;28;20473;-79
2021/04/08 04:43:53;;;;;;;31.83;17.25;;;;;;;-2.29;87.07;93616.16;2106494;28;20059;-79
2021/04/08 04:44:54;;;;;;;21.73;12.48;;;;;;;-2.29;86.24;93601.22;2123246;27;20097;-80
2021/04/08 04:45:54;;;;;;;11.57;7.45;;;;;;;-2.33;87.54;93602.19;2120050;27;20019;-80
2021/04/08 04:46:56;;;;;;;9.25;6.00;;;;;;;-2.36;87.68;93593.16;2101129;28;20034;-80
2021/04/08 04:47:57;;;;;;;8.88;4.63;;;;;;;-2.40;87.69;93601.97;2090181;28;20020;-78
2021/04/08 04:48:57;;;;;;;7.97;4.75;;;;;;;-2.39;87.59;93606.09;2089651;28;20493;-79
2021/04/08 04:49:58;;;;;;;7.90;4.00;;;;;;;-2.37;87.10;93603.91;2097964;28;20032;-79
2021/04/08 04:50:58;;;;;;;8.65;4.50;;;;;;;-2.34;87.99;93600.66;2114865;28;20038;-79
2021/04/08 04:51:59;;;;;;;7.00;3.55;;;;;;;-2.35;87.29;93599.91;2123187;27;20019;-80
2021/04/08 04:52:59;;;;;;;4.57;3.10;;;;;;;-2.36;88.42;93605.47;2114811;28;20035;-80
2021/04/08 04:53:59;;;;;;;7.53;3.10;;;;;;;-2.43;88.88;93605.22;2114886;28;20069;-79
2021/04/08 04:55:00;;;;;;;3.60;2.85;;;;;;;-2.48;88.78;93608.03;2114751;28;20028;-80